sensor_id;sensor_type;location;lat;lon;timestamp;pressure;altitude;pressure_sealevel;temperature;humidity
71299;BME280;59083;47.974;21.722;2022-07-11T00:00:43;100452.25;;;17.13;51.43
71299;BME280;59083;47.974;21.722;2022-07-11T00:03:45;100460.78;;;17.10;51.24
71299;BME280;59083;47.974;21.722;2022-07-11T00:06:46;100463.72;;;17.08;51.38
71299;BME280;59083;47.974;21.722;2022-07-11T00:09:47;100460.97;;;16.97;51.34
71299;BME280;59083;47.974;21.722;2022-07-11T00:12:48;100460.56;;;16.93;51.70
71299;BME280;59083;47.974;21.722;2022-07-11T00:15:50;100463.75;;;16.90;51.67
71299;BME280;59083;47.974;21.722;2022-07-11T00:18:51;100469.34;;;16.88;51.44
71299;BME280;59083;47.974;21.722;2022-07-11T00:21:52;100473.22;;;16.92;51.52
71299;BME280;59083;47.974;21.722;2022-07-11T00:24:54;100471.28;;;16.81;51.57
71299;BME280;59083;47.974;21.722;2022-07-11T00:27:55;100467.41;;;16.77;51.63
71299;BME280;59083;47.974;21.722;2022-07-11T00:30:56;100477.13;;;16.78;51.52
71299;BME280;59083;47.974;21.722;2022-07-11T00:33:58;100479.97;;;16.83;51.50
71299;BME280;59083;47.974;21.722;2022-07-11T00:36:59;100466.16;;;16.80;51.54
71299;BME280;59083;47.974;21.722;2022-07-11T00:40:01;100482.88;;;16.82;51.55
71299;BME280;59083;47.974;21.722;2022-07-11T00:43:06;100478.66;;;16.74;51.83
71299;BME280;59083;47.974;21.722;2022-07-11T00:46:08;100482.38;;;16.73;51.91
71299;BME280;59083;47.974;21.722;2022-07-11T00:49:10;100473.69;;;16.71;51.97
71299;BME280;59083;47.974;21.722;2022-07-11T00:52:11;100478.66;;;16.74;52.13
71299;BME280;59083;47.974;21.722;2022-07-11T00:55:12;100481.34;;;16.74;52.06
71299;BME280;59083;47.974;21.722;2022-07-11T00:58:14;100485.50;;;16.70;52.25
71299;BME280;59083;47.974;21.722;2022-07-11T01:01:16;100493.16;;;16.73;52.29
71299;BME280;59083;47.974;21.722;2022-07-11T01:04:17;100490.31;;;16.68;52.53
71299;BME280;59083;47.974;21.722;2022-07-11T01:07:20;100482.06;;;16.63;52.91
71299;BME280;59083;47.974;21.722;2022-07-11T01:10:22;100494.94;;;16.61;53.14
71299;BME280;59083;47.974;21.722;2022-07-11T01:13:24;100489.94;;;16.58;53.38
71299;BME280;59083;47.974;21.722;2022-07-11T01:16:25;100488.75;;;16.54;53.73
71299;BME280;59083;47.974;21.722;2022-07-11T01:19:26;100492.19;;;16.43;54.39
71299;BME280;59083;47.974;21.722;2022-07-11T01:22:29;100493.91;;;16.37;54.70
71299;BME280;59083;47.974;21.722;2022-07-11T01:25:34;100498.16;;;16.27;55.54
71299;BME280;59083;47.974;21.722;2022-07-11T01:28:35;100501.87;;;16.26;56.49
71299;BME280;59083;47.974;21.722;2022-07-11T01:31:41;100500.69;;;16.22;56.15
71299;BME280;59083;47.974;21.722;2022-07-11T01:34:43;100490.09;;;16.27;56.35
71299;BME280;59083;47.974;21.722;2022-07-11T01:37:44;100493.19;;;16.24;57.65
71299;BME280;59083;47.974;21.722;2022-07-11T01:40:45;100492.31;;;16.30;57.56
71299;BME280;59083;47.974;21.722;2022-07-11T01:43:47;100492.78;;;16.27;58.30
71299;BME280;59083;47.974;21.722;2022-07-11T01:46:48;100489.94;;;16.22;57.82
71299;BME280;59083;47.974;21.722;2022-07-11T01:49:49;100484.00;;;16.13;59.03
71299;BME280;59083;47.974;21.722;2022-07-11T01:52:50;100483.06;;;16.01;58.99
71299;BME280;59083;47.974;21.722;2022-07-11T01:55:51;100481.94;;;15.90;59.76
71299;BME280;59083;47.974;21.722;2022-07-11T01:58:53;100484.09;;;15.82;61.09
71299;BME280;59083;47.974;21.722;2022-07-11T02:01:54;100488.00;;;15.79;61.57
71299;BME280;59083;47.974;21.722;2022-07-11T02:04:56;100490.12;;;15.77;62.40
71299;BME280;59083;47.974;21.722;2022-07-11T02:07:57;100481.88;;;15.72;62.70
71299;BME280;59083;47.974;21.722;2022-07-11T02:11:14;100487.44;;;15.77;62.61
71299;BME280;59083;47.974;21.722;2022-07-11T02:14:15;100482.69;;;15.73;63.33
71299;BME280;59083;47.974;21.722;2022-07-11T02:17:16;100492.91;;;15.64;63.19
71299;BME280;59083;47.974;21.722;2022-07-11T02:20:18;100496.66;;;15.50;64.45
71299;BME280;59083;47.974;21.722;2022-07-11T02:23:20;100493.06;;;15.38;64.60
71299;BME280;59083;47.974;21.722;2022-07-11T02:26:21;100495.53;;;15.32;64.56
71299;BME280;59083;47.974;21.722;2022-07-11T02:29:22;100492.66;;;15.27;65.36
71299;BME280;59083;47.974;21.722;2022-07-11T02:32:23;100501.34;;;15.29;65.97
71299;BME280;59083;47.974;21.722;2022-07-11T02:35:25;100503.84;;;15.24;65.76
71299;BME280;59083;47.974;21.722;2022-07-11T02:38:26;100508.78;;;15.27;64.89
71299;BME280;59083;47.974;21.722;2022-07-11T02:41:28;100505.06;;;15.28;64.53
71299;BME280;59083;47.974;21.722;2022-07-11T02:44:30;100508.37;;;15.30;63.70
71299;BME280;59083;47.974;21.722;2022-07-11T02:47:32;100504.19;;;15.35;62.77
71299;BME280;59083;47.974;21.722;2022-07-11T02:50:33;100508.56;;;15.29;62.34
71299;BME280;59083;47.974;21.722;2022-07-11T02:53:34;100500.16;;;15.19;62.74
71299;BME280;59083;47.974;21.722;2022-07-11T02:56:35;100509.62;;;15.21;62.87
71299;BME280;59083;47.974;21.722;2022-07-11T02:59:37;100507.56;;;15.23;62.71
71299;BME280;59083;47.974;21.722;2022-07-11T03:02:38;100509.22;;;15.24;62.75
71299;BME280;59083;47.974;21.722;2022-07-11T03:05:39;100505.91;;;15.22;62.52
71299;BME280;59083;47.974;21.722;2022-07-11T03:08:40;100500.16;;;15.19;62.39
71299;BME280;59083;47.974;21.722;2022-07-11T03:11:42;100497.28;;;15.20;62.29
71299;BME280;59083;47.974;21.722;2022-07-11T03:14:43;100510.09;;;15.18;61.85
71299;BME280;59083;47.974;21.722;2022-07-11T03:17:45;100504.31;;;15.15;61.90
71299;BME280;59083;47.974;21.722;2022-07-11T03:20:46;100504.87;;;15.23;61.52
71299;BME280;59083;47.974;21.722;2022-07-11T03:23:47;100504.19;;;15.35;60.69
71299;BME280;59083;47.974;21.722;2022-07-11T03:26:50;100503.50;;;15.46;59.83
71299;BME280;59083;47.974;21.722;2022-07-11T03:29:52;100507.75;;;15.66;59.95
71299;BME280;59083;47.974;21.722;2022-07-11T03:32:53;100505.75;;;15.87;58.86
71299;BME280;59083;47.974;21.722;2022-07-11T03:35:54;100502.97;;;16.00;58.09
71299;BME280;59083;47.974;21.722;2022-07-11T03:38:55;100502.75;;;16.20;57.16
71299;BME280;59083;47.974;21.722;2022-07-11T03:41:57;100504.94;;;16.11;57.11
71299;BME280;59083;47.974;21.722;2022-07-11T03:44:58;100511.13;;;16.11;57.52
71299;BME280;59083;47.974;21.722;2022-07-11T03:48:00;100508.37;;;15.93;57.83
71299;BME280;59083;47.974;21.722;2022-07-11T03:51:01;100509.59;;;15.97;57.74
71299;BME280;59083;47.974;21.722;2022-07-11T03:54:02;100517.25;;;16.98;55.48
71299;BME280;59083;47.974;21.722;2022-07-11T03:57:05;100521.87;;;17.99;51.90
71299;BME280;59083;47.974;21.722;2022-07-11T04:00:07;100522.03;;;18.74;50.33
71299;BME280;59083;47.974;21.722;2022-07-11T04:03:10;100515.94;;;19.47;48.28
71299;BME280;59083;47.974;21.722;2022-07-11T04:06:11;100520.66;;;20.01;46.98
71299;BME280;59083;47.974;21.722;2022-07-11T04:09:13;100515.13;;;20.63;45.17
71299;BME280;59083;47.974;21.722;2022-07-11T04:12:14;100522.25;;;19.97;46.52
71299;BME280;59083;47.974;21.722;2022-07-11T04:15:16;100520.91;;;19.83;46.48
71299;BME280;59083;47.974;21.722;2022-07-11T04:18:17;100524.16;;;19.12;48.31
71299;BME280;59083;47.974;21.722;2022-07-11T04:21:18;100528.53;;;19.01;49.01
71299;BME280;59083;47.974;21.722;2022-07-11T04:24:20;100526.56;;;19.65;47.57
71299;BME280;59083;47.974;21.722;2022-07-11T04:27:21;100526.94;;;19.57;47.83
71299;BME280;59083;47.974;21.722;2022-07-11T04:30:22;100533.88;;;19.81;46.54
71299;BME280;59083;47.974;21.722;2022-07-11T04:33:23;100534.34;;;19.78;45.86
71299;BME280;59083;47.974;21.722;2022-07-11T04:36:25;100528.59;;;20.58;45.40
71299;BME280;59083;47.974;21.722;2022-07-11T04:39:26;100533.97;;;20.75;44.19
71299;BME280;59083;47.974;21.722;2022-07-11T04:42:28;100539.31;;;20.70;44.30
71299;BME280;59083;47.974;21.722;2022-07-11T04:45:29;100531.28;;;21.40;43.41
71299;BME280;59083;47.974;21.722;2022-07-11T04:48:31;100542.75;;;21.47;42.40
71299;BME280;59083;47.974;21.722;2022-07-11T04:51:32;100546.63;;;22.84;39.65
71299;BME280;59083;47.974;21.722;2022-07-11T04:54:33;100553.22;;;23.03;39.13
71299;BME280;59083;47.974;21.722;2022-07-11T04:57:35;100547.94;;;22.39;39.62
71299;BME280;59083;47.974;21.722;2022-07-11T05:00:36;100540.19;;;21.62;41.51
71299;BME280;59083;47.974;21.722;2022-07-11T05:03:38;100562.41;;;21.59;41.62
71299;BME280;59083;47.974;21.722;2022-07-11T05:06:39;100560.00;;;21.90;40.81
71299;BME280;59083;47.974;21.722;2022-07-11T05:09:40;100557.56;;;22.20;40.70
71299;BME280;59083;47.974;21.722;2022-07-11T05:12:41;100557.09;;;21.69;41.70
71299;BME280;59083;47.974;21.722;2022-07-11T05:15:43;100564.47;;;22.01;41.22
71299;BME280;59083;47.974;21.722;2022-07-11T05:18:45;100553.66;;;21.52;41.30
71299;BME280;59083;47.974;21.722;2022-07-11T05:21:46;100569.44;;;21.33;42.38
71299;BME280;59083;47.974;21.722;2022-07-11T05:24:47;100573.19;;;20.89;44.04
71299;BME280;59083;47.974;21.722;2022-07-11T05:27:49;100572.22;;;21.38;42.68
71299;BME280;59083;47.974;21.722;2022-07-11T05:30:50;100570.69;;;21.48;42.84
71299;BME280;59083;47.974;21.722;2022-07-11T05:33:51;100571.94;;;20.58;44.98
71299;BME280;59083;47.974;21.722;2022-07-11T05:36:52;100573.28;;;20.39;44.88
71299;BME280;59083;47.974;21.722;2022-07-11T05:39:54;100576.94;;;19.71;46.31
71299;BME280;59083;47.974;21.722;2022-07-11T05:42:55;100582.06;;;19.56;47.33
71299;BME280;59083;47.974;21.722;2022-07-11T05:45:57;100581.78;;;19.29;47.30
71299;BME280;59083;47.974;21.722;2022-07-11T05:48:58;100585.28;;;19.53;47.32
71299;BME280;59083;47.974;21.722;2022-07-11T05:52:00;100582.16;;;19.89;46.41
71299;BME280;59083;47.974;21.722;2022-07-11T05:55:03;100585.03;;;19.99;46.15
71299;BME280;59083;47.974;21.722;2022-07-11T05:58:04;100579.63;;;20.83;44.11
71299;BME280;59083;47.974;21.722;2022-07-11T06:01:05;100580.78;;;21.79;41.65
71299;BME280;59083;47.974;21.722;2022-07-11T06:04:07;100581.31;;;24.37;36.69
71299;BME280;59083;47.974;21.722;2022-07-11T06:07:08;100578.56;;;24.21;36.46
71299;BME280;59083;47.974;21.722;2022-07-11T06:10:10;100576.34;;;23.00;37.73
71299;BME280;59083;47.974;21.722;2022-07-11T06:13:13;100579.72;;;23.38;36.62
71299;BME280;59083;47.974;21.722;2022-07-11T06:16:15;100579.87;;;23.99;35.75
71299;BME280;59083;47.974;21.722;2022-07-11T06:19:17;100575.50;;;25.58;31.72
71299;BME280;59083;47.974;21.722;2022-07-11T06:22:18;100583.13;;;24.82;33.25
71299;BME280;59083;47.974;21.722;2022-07-11T06:25:20;100583.69;;;25.53;32.24
71299;BME280;59083;47.974;21.722;2022-07-11T06:28:21;100585.81;;;25.07;32.80
71299;BME280;59083;47.974;21.722;2022-07-11T06:31:23;100579.03;;;23.58;35.79
71299;BME280;59083;47.974;21.722;2022-07-11T06:34:24;100582.84;;;22.62;37.94
71299;BME280;59083;47.974;21.722;2022-07-11T06:37:25;100580.50;;;25.90;32.73
71299;BME280;59083;47.974;21.722;2022-07-11T06:40:26;100574.19;;;27.10;28.98
71299;BME280;59083;47.974;21.722;2022-07-11T06:43:28;100585.38;;;27.75;28.58
71299;BME280;59083;47.974;21.722;2022-07-11T06:46:31;100578.38;;;28.98;26.36
71299;BME280;59083;47.974;21.722;2022-07-11T06:49:32;100581.62;;;29.77;25.88
71299;BME280;59083;47.974;21.722;2022-07-11T06:52:33;100589.78;;;29.69;25.55
71299;BME280;59083;47.974;21.722;2022-07-11T06:55:35;100595.44;;;30.00;24.85
71299;BME280;59083;47.974;21.722;2022-07-11T06:58:36;100587.81;;;29.47;25.94
71299;BME280;59083;47.974;21.722;2022-07-11T07:01:37;100582.72;;;29.13;26.05
71299;BME280;59083;47.974;21.722;2022-07-11T07:04:39;100594.75;;;28.76;27.24
71299;BME280;59083;47.974;21.722;2022-07-11T07:07:40;100590.38;;;29.79;25.04
71299;BME280;59083;47.974;21.722;2022-07-11T07:10:41;100584.31;;;28.08;27.97
71299;BME280;59083;47.974;21.722;2022-07-11T07:13:43;100592.03;;;28.71;26.78
71299;BME280;59083;47.974;21.722;2022-07-11T07:16:46;100591.31;;;29.39;25.77
71299;BME280;59083;47.974;21.722;2022-07-11T07:19:48;100588.53;;;30.33;24.58
71299;BME280;59083;47.974;21.722;2022-07-11T07:22:49;100588.50;;;30.77;23.42
71299;BME280;59083;47.974;21.722;2022-07-11T07:25:50;100582.50;;;28.82;25.99
71299;BME280;59083;47.974;21.722;2022-07-11T07:28:52;100587.72;;;30.32;24.75
71299;BME280;59083;47.974;21.722;2022-07-11T07:31:53;100578.03;;;31.36;23.25
71299;BME280;59083;47.974;21.722;2022-07-11T07:34:54;100581.78;;;31.01;23.59
71299;BME280;59083;47.974;21.722;2022-07-11T07:37:56;100581.69;;;30.22;24.51
71299;BME280;59083;47.974;21.722;2022-07-11T07:40:57;100575.44;;;29.08;25.64
71299;BME280;59083;47.974;21.722;2022-07-11T07:43:58;100577.59;;;30.64;23.45
71299;BME280;59083;47.974;21.722;2022-07-11T07:46:59;100574.41;;;30.79;23.69
71299;BME280;59083;47.974;21.722;2022-07-11T07:50:01;100570.81;;;30.70;23.23
71299;BME280;59083;47.974;21.722;2022-07-11T07:53:02;100573.91;;;31.16;23.20
71299;BME280;59083;47.974;21.722;2022-07-11T07:56:06;100580.66;;;30.62;23.55
71299;BME280;59083;47.974;21.722;2022-07-11T07:59:08;100584.28;;;30.27;23.77
71299;BME280;59083;47.974;21.722;2022-07-11T08:02:09;100582.41;;;29.91;24.46
71299;BME280;59083;47.974;21.722;2022-07-11T08:05:10;100574.28;;;30.09;24.31
71299;BME280;59083;47.974;21.722;2022-07-11T08:08:12;100575.13;;;29.73;23.58
71299;BME280;59083;47.974;21.722;2022-07-11T08:11:13;100572.53;;;28.72;25.20
71299;BME280;59083;47.974;21.722;2022-07-11T08:14:14;100573.75;;;28.53;25.39
71299;BME280;59083;47.974;21.722;2022-07-11T08:17:16;100576.59;;;27.35;27.31
71299;BME280;59083;47.974;21.722;2022-07-11T08:20:17;100564.41;;;29.49;24.58
71299;BME280;59083;47.974;21.722;2022-07-11T08:23:18;100570.03;;;30.25;23.03
71299;BME280;59083;47.974;21.722;2022-07-11T08:26:20;100562.13;;;30.23;22.77
71299;BME280;59083;47.974;21.722;2022-07-11T08:29:21;100572.34;;;28.04;25.49
71299;BME280;59083;47.974;21.722;2022-07-11T08:32:22;100572.06;;;28.38;25.23
71299;BME280;59083;47.974;21.722;2022-07-11T08:35:23;100570.78;;;27.98;26.08
71299;BME280;59083;47.974;21.722;2022-07-11T08:38:25;100565.56;;;27.83;26.42
71299;BME280;59083;47.974;21.722;2022-07-11T08:41:26;100565.44;;;25.92;28.60
71299;BME280;59083;47.974;21.722;2022-07-11T08:44:27;100563.22;;;24.86;30.63
71299;BME280;59083;47.974;21.722;2022-07-11T08:47:30;100569.31;;;24.43;30.39
71299;BME280;59083;47.974;21.722;2022-07-11T08:50:31;100554.59;;;24.13;31.81
71299;BME280;59083;47.974;21.722;2022-07-11T08:53:38;100562.16;;;23.61;32.88
71299;BME280;59083;47.974;21.722;2022-07-11T08:56:42;100568.03;;;23.42;34.12
71299;BME280;59083;47.974;21.722;2022-07-11T08:59:47;100566.19;;;23.48;33.64
71299;BME280;59083;47.974;21.722;2022-07-11T09:02:49;100566.41;;;23.41;33.60
71299;BME280;59083;47.974;21.722;2022-07-11T09:05:53;100568.28;;;25.18;30.88
71299;BME280;59083;47.974;21.722;2022-07-11T09:08:59;100559.22;;;25.82;29.53
71299;BME280;59083;47.974;21.722;2022-07-11T09:12:00;100557.97;;;25.64;30.12
71299;BME280;59083;47.974;21.722;2022-07-11T09:15:02;100558.63;;;25.41;30.08
71299;BME280;59083;47.974;21.722;2022-07-11T09:18:06;100561.56;;;24.95;30.90
71299;BME280;59083;47.974;21.722;2022-07-11T09:21:11;100550.34;;;25.66;29.53
71299;BME280;59083;47.974;21.722;2022-07-11T09:24:35;100557.69;;;25.17;30.13
71299;BME280;59083;47.974;21.722;2022-07-11T09:28:00;100545.19;;;24.95;30.59
71299;BME280;59083;47.974;21.722;2022-07-11T09:31:15;100549.47;;;25.22;30.01
71299;BME280;59083;47.974;21.722;2022-07-11T09:34:18;100539.66;;;26.04;28.63
71299;BME280;59083;47.974;21.722;2022-07-11T09:37:20;100536.56;;;25.81;28.83
71299;BME280;59083;47.974;21.722;2022-07-11T09:40:21;100545.47;;;25.58;29.54
71299;BME280;59083;47.974;21.722;2022-07-11T09:43:24;100534.03;;;25.56;29.70
71299;BME280;59083;47.974;21.722;2022-07-11T09:46:25;100526.84;;;25.65;29.05
71299;BME280;59083;47.974;21.722;2022-07-11T09:49:34;100529.22;;;25.33;29.29
71299;BME280;59083;47.974;21.722;2022-07-11T09:52:35;100524.59;;;25.33;29.22
71299;BME280;59083;47.974;21.722;2022-07-11T09:55:42;100533.22;;;24.81;30.49
71299;BME280;59083;47.974;21.722;2022-07-11T09:58:58;100531.16;;;24.12;31.68
71299;BME280;59083;47.974;21.722;2022-07-11T10:02:00;100524.59;;;23.88;31.85
71299;BME280;59083;47.974;21.722;2022-07-11T10:05:03;100528.97;;;23.74;32.78
71299;BME280;59083;47.974;21.722;2022-07-11T10:08:05;100542.28;;;23.55;33.40
71299;BME280;59083;47.974;21.722;2022-07-11T10:11:07;100537.00;;;23.28;33.79
71299;BME280;59083;47.974;21.722;2022-07-11T10:14:09;100536.88;;;22.98;34.47
71299;BME280;59083;47.974;21.722;2022-07-11T10:31:21;100529.28;;;23.00;35.49
71299;BME280;59083;47.974;21.722;2022-07-11T10:34:27;100528.94;;;24.55;32.77
71299;BME280;59083;47.974;21.722;2022-07-11T10:37:28;100521.53;;;25.35;31.69
71299;BME280;59083;47.974;21.722;2022-07-11T10:40:51;100520.34;;;25.61;31.29
71299;BME280;59083;47.974;21.722;2022-07-11T10:43:57;100508.44;;;25.37;30.06
71299;BME280;59083;47.974;21.722;2022-07-11T10:46:58;100518.84;;;24.55;31.96
71299;BME280;59083;47.974;21.722;2022-07-11T10:50:07;100521.38;;;23.86;33.02
71299;BME280;59083;47.974;21.722;2022-07-11T10:53:11;100524.00;;;23.40;34.38
71299;BME280;59083;47.974;21.722;2022-07-11T11:00:00;100520.00;;;22.91;38.99
71299;BME280;59083;47.974;21.722;2022-07-11T11:03:06;100532.81;;;22.53;41.73
71299;BME280;59083;47.974;21.722;2022-07-11T11:06:09;100536.97;;;21.92;43.66
71299;BME280;59083;47.974;21.722;2022-07-11T11:09:36;100544.75;;;21.30;47.73
71299;BME280;59083;47.974;21.722;2022-07-11T11:16:22;100558.03;;;20.33;53.74
71299;BME280;59083;47.974;21.722;2022-07-11T11:23:10;100554.19;;;18.64;60.90
71299;BME280;59083;47.974;21.722;2022-07-11T11:26:19;100555.75;;;17.95;63.11
71299;BME280;59083;47.974;21.722;2022-07-11T11:29:23;100546.16;;;17.99;61.16
71299;BME280;59083;47.974;21.722;2022-07-11T11:32:30;100565.25;;;17.97;61.49
71299;BME280;59083;47.974;21.722;2022-07-11T11:35:32;100556.50;;;17.72;62.67
71299;BME280;59083;47.974;21.722;2022-07-11T11:38:34;100565.59;;;18.01;59.26
71299;BME280;59083;47.974;21.722;2022-07-11T11:41:36;100569.75;;;18.27;59.38
71299;BME280;59083;47.974;21.722;2022-07-11T11:44:55;100559.56;;;18.87;57.64
71299;BME280;59083;47.974;21.722;2022-07-11T11:47:57;100552.37;;;19.32;58.10
71299;BME280;59083;47.974;21.722;2022-07-11T11:51:07;100549.13;;;19.87;54.00
71299;BME280;59083;47.974;21.722;2022-07-11T11:54:09;100547.50;;;20.19;52.88
71299;BME280;59083;47.974;21.722;2022-07-11T11:57:11;100547.41;;;19.98;50.66
71299;BME280;59083;47.974;21.722;2022-07-11T12:00:23;100544.78;;;20.19;50.44
71299;BME280;59083;47.974;21.722;2022-07-11T12:03:48;100540.66;;;20.67;49.57
71299;BME280;59083;47.974;21.722;2022-07-11T12:06:49;100544.00;;;20.74;46.86
71299;BME280;59083;47.974;21.722;2022-07-11T12:09:52;100543.22;;;20.57;46.52
71299;BME280;59083;47.974;21.722;2022-07-11T12:12:56;100540.94;;;20.49;46.98
71299;BME280;59083;47.974;21.722;2022-07-11T12:15:59;100533.66;;;20.71;46.72
71299;BME280;59083;47.974;21.722;2022-07-11T12:19:21;100534.78;;;20.53;47.51
71299;BME280;59083;47.974;21.722;2022-07-11T12:22:23;100540.72;;;20.72;44.69
71299;BME280;59083;47.974;21.722;2022-07-11T12:25:25;100525.03;;;20.74;45.92
71299;BME280;59083;47.974;21.722;2022-07-11T12:28:27;100542.00;;;20.86;43.22
71299;BME280;59083;47.974;21.722;2022-07-11T12:34:47;100532.66;;;20.77;43.76
71299;BME280;59083;47.974;21.722;2022-07-11T12:37:53;100537.56;;;20.58;44.86
71299;BME280;59083;47.974;21.722;2022-07-11T12:41:03;100541.00;;;20.92;45.22
71299;BME280;59083;47.974;21.722;2022-07-11T12:44:05;100537.44;;;20.70;44.31
71299;BME280;59083;47.974;21.722;2022-07-11T12:47:27;100539.50;;;20.63;44.62
71299;BME280;59083;47.974;21.722;2022-07-11T12:50:29;100535.31;;;20.72;47.99
71299;BME280;59083;47.974;21.722;2022-07-11T12:53:30;100540.12;;;20.32;48.77
71299;BME280;59083;47.974;21.722;2022-07-11T12:56:32;100539.75;;;19.95;48.35
71299;BME280;59083;47.974;21.722;2022-07-11T12:59:34;100529.00;;;19.83;49.77
71299;BME280;59083;47.974;21.722;2022-07-11T13:02:36;100514.84;;;19.76;49.77
71299;BME280;59083;47.974;21.722;2022-07-11T13:05:51;100506.97;;;19.91;50.43
71299;BME280;59083;47.974;21.722;2022-07-11T13:08:52;100497.13;;;20.02;48.17
71299;BME280;59083;47.974;21.722;2022-07-11T13:11:55;100502.56;;;20.35;46.96
71299;BME280;59083;47.974;21.722;2022-07-11T13:15:06;100504.44;;;20.73;45.42
71299;BME280;59083;47.974;21.722;2022-07-11T13:18:11;100512.63;;;21.00;43.99
71299;BME280;59083;47.974;21.722;2022-07-11T13:21:12;100502.09;;;21.03;44.68
71299;BME280;59083;47.974;21.722;2022-07-11T13:24:14;100501.66;;;21.12;45.20
71299;BME280;59083;47.974;21.722;2022-07-11T13:27:15;100502.97;;;21.09;43.47
71299;BME280;59083;47.974;21.722;2022-07-11T13:30:18;100507.06;;;20.68;43.46
71299;BME280;59083;47.974;21.722;2022-07-11T13:33:22;100504.94;;;20.70;43.41
71299;BME280;59083;47.974;21.722;2022-07-11T13:36:23;100503.41;;;20.79;43.91
71299;BME280;59083;47.974;21.722;2022-07-11T13:39:24;100505.13;;;21.07;43.39
71299;BME280;59083;47.974;21.722;2022-07-11T13:42:25;100501.81;;;21.22;43.25
71299;BME280;59083;47.974;21.722;2022-07-11T13:45:27;100498.50;;;21.20;42.86
71299;BME280;59083;47.974;21.722;2022-07-11T13:48:28;100490.44;;;21.25;43.81
71299;BME280;59083;47.974;21.722;2022-07-11T13:51:29;100488.81;;;21.24;43.55
71299;BME280;59083;47.974;21.722;2022-07-11T13:54:31;100486.72;;;21.09;43.78
71299;BME280;59083;47.974;21.722;2022-07-11T13:57:36;100477.34;;;21.17;43.15
71299;BME280;59083;47.974;21.722;2022-07-11T14:00:37;100474.06;;;21.15;43.20
71299;BME280;59083;47.974;21.722;2022-07-11T14:03:39;100473.63;;;21.23;42.71
71299;BME280;59083;47.974;21.722;2022-07-11T14:06:40;100470.28;;;21.42;42.64
71299;BME280;59083;47.974;21.722;2022-07-11T14:09:43;100467.63;;;21.48;42.52
71299;BME280;59083;47.974;21.722;2022-07-11T14:12:44;100470.28;;;21.42;41.80
71299;BME280;59083;47.974;21.722;2022-07-11T14:15:45;100476.16;;;21.61;42.91
71299;BME280;59083;47.974;21.722;2022-07-11T14:18:47;100472.00;;;21.54;41.57
71299;BME280;59083;47.974;21.722;2022-07-11T14:21:49;100466.75;;;21.42;41.47
71299;BME280;59083;47.974;21.722;2022-07-11T14:24:50;100472.25;;;21.47;41.92
71299;BME280;59083;47.974;21.722;2022-07-11T14:27:51;100467.31;;;21.44;41.75
71299;BME280;59083;47.974;21.722;2022-07-11T14:30:53;100469.06;;;21.55;42.06
71299;BME280;59083;47.974;21.722;2022-07-11T14:33:54;100468.09;;;21.71;41.72
71299;BME280;59083;47.974;21.722;2022-07-11T14:36:56;100466.78;;;21.74;40.89
71299;BME280;59083;47.974;21.722;2022-07-11T14:39:57;100469.00;;;21.82;41.81
71299;BME280;59083;47.974;21.722;2022-07-11T14:42:58;100472.56;;;21.87;41.56
71299;BME280;59083;47.974;21.722;2022-07-11T14:46:00;100471.25;;;21.90;41.99
71299;BME280;59083;47.974;21.722;2022-07-11T14:49:01;100481.25;;;21.84;40.94
71299;BME280;59083;47.974;21.722;2022-07-11T14:52:02;100506.69;;;21.78;40.30
71299;BME280;59083;47.974;21.722;2022-07-11T14:55:05;100528.22;;;21.58;41.75
71299;BME280;59083;47.974;21.722;2022-07-11T14:58:07;100544.38;;;20.61;53.29
71299;BME280;59083;47.974;21.722;2022-07-11T15:01:08;100566.59;;;19.39;61.05
71299;BME280;59083;47.974;21.722;2022-07-11T15:04:09;100578.00;;;18.90;67.26
71299;BME280;59083;47.974;21.722;2022-07-11T15:07:10;100584.91;;;18.39;71.01
71299;BME280;59083;47.974;21.722;2022-07-11T15:10:30;100589.19;;;17.94;70.18
71299;BME280;59083;47.974;21.722;2022-07-11T15:13:50;100593.63;;;17.22;72.11
71299;BME280;59083;47.974;21.722;2022-07-11T15:16:51;100580.09;;;16.74;76.37
71299;BME280;59083;47.974;21.722;2022-07-11T15:19:52;100580.59;;;16.64;77.68
71299;BME280;59083;47.974;21.722;2022-07-11T15:22:55;100574.88;;;16.54;76.91
71299;BME280;59083;47.974;21.722;2022-07-11T15:25:56;100555.09;;;16.42;78.95
71299;BME280;59083;47.974;21.722;2022-07-11T15:28:57;100556.28;;;16.28;75.10
71299;BME280;59083;47.974;21.722;2022-07-11T15:31:58;100558.59;;;15.99;74.84
71299;BME280;59083;47.974;21.722;2022-07-11T15:35:00;100556.56;;;15.63;76.17
71299;BME280;59083;47.974;21.722;2022-07-11T15:38:01;100576.97;;;15.71;77.34
71299;BME280;59083;47.974;21.722;2022-07-11T15:41:04;100579.22;;;15.74;73.89
71299;BME280;59083;47.974;21.722;2022-07-11T15:44:05;100577.44;;;15.61;75.41
71299;BME280;59083;47.974;21.722;2022-07-11T15:47:07;100589.56;;;15.77;74.85
71299;BME280;59083;47.974;21.722;2022-07-11T15:50:08;100594.91;;;16.08;75.80
71299;BME280;59083;47.974;21.722;2022-07-11T15:53:09;100592.38;;;15.89;75.33
71299;BME280;59083;47.974;21.722;2022-07-11T15:56:12;100587.44;;;15.79;74.39
71299;BME280;59083;47.974;21.722;2022-07-11T15:59:13;100597.50;;;15.59;75.03
71299;BME280;59083;47.974;21.722;2022-07-11T16:02:15;100594.53;;;15.67;74.60
71299;BME280;59083;47.974;21.722;2022-07-11T16:05:16;100595.78;;;15.71;74.84
71299;BME280;59083;47.974;21.722;2022-07-11T16:08:17;100596.69;;;15.58;75.85
71299;BME280;59083;47.974;21.722;2022-07-11T16:11:19;100603.72;;;15.53;75.78